sensor_id;sensor_type;location;lat;lon;timestamp;pressure;altitude;pressure_sealevel;temperature;humidity
70304;BME280;57712;48.752;11.348;2022-12-10T00:01:20;96286.34;;;1.44;100.00
70304;BME280;57712;48.752;11.348;2022-12-10T00:03:47;96285.56;;;1.40;100.00
70304;BME280;57712;48.752;11.348;2022-12-10T00:06:16;96280.22;;;1.19;100.00
70304;BME280;57712;48.752;11.348;2022-12-10T00:08:43;96281.72;;;1.41;100.00
70304;BME280;57712;48.752;11.348;2022-12-10T00:11:11;96278.63;;;1.35;100.00
70304;BME280;57712;48.752;11.348;2022-12-10T00:13:38;96284.03;;;1.39;100.00
70304;BME280;57712;48.752;11.348;2022-12-10T00:16:07;96282.88;;;1.40;100.00
70304;BME280;57712;48.752;11.348;2022-12-10T00:18:35;96285.19;;;1.41;100.00
70304;BME280;57712;48.752;11.348;2022-12-10T00:21:06;96292.53;;;1.27;100.00
70304;BME280;57712;48.752;11.348;2022-12-10T00:23:34;96280.97;;;1.30;100.00
70304;BME280;57712;48.752;11.348;2022-12-10T00:26:06;96297.53;;;1.39;100.00
70304;BME280;57712;48.752;11.348;2022-12-10T00:28:32;96285.19;;;1.38;100.00
70304;BME280;57712;48.752;11.348;2022-12-10T00:31:08;96293.69;;;1.40;100.00
70304;BME280;57712;48.752;11.348;2022-12-10T00:33:35;96296.75;;;1.35;100.00
70304;BME280;57712;48.752;11.348;2022-12-10T00:36:08;96300.59;;;1.44;100.00
70304;BME280;57712;48.752;11.348;2022-12-10T00:38:36;96294.06;;;1.42;100.00
70304;BME280;57712;48.752;11.348;2022-12-10T00:41:03;96296.00;;;1.38;100.00
70304;BME280;57712;48.752;11.348;2022-12-10T00:43:29;96303.69;;;1.47;100.00
70304;BME280;57712;48.752;11.348;2022-12-10T00:45:56;96297.53;;;1.46;100.00
70304;BME280;57712;48.752;11.348;2022-12-10T00:48:23;96292.88;;;1.43;100.00
70304;BME280;57712;48.752;11.348;2022-12-10T00:51:02;96294.06;;;1.42;100.00
70304;BME280;57712;48.752;11.348;2022-12-10T00:53:30;96288.25;;;1.43;100.00
70304;BME280;57712;48.752;11.348;2022-12-10T00:55:58;96287.13;;;1.41;100.00
70304;BME280;57712;48.752;11.348;2022-12-10T00:58:29;96284.03;;;1.39;100.00
70304;BME280;57712;48.752;11.348;2022-12-10T01:01:12;96280.19;;;1.33;100.00
70304;BME280;57712;48.752;11.348;2022-12-10T01:03:39;96294.47;;;1.30;100.00
70304;BME280;57712;48.752;11.348;2022-12-10T01:06:18;96292.13;;;1.35;100.00
70304;BME280;57712;48.752;11.348;2022-12-10T01:08:45;96299.06;;;1.43;100.00
70304;BME280;57712;48.752;11.348;2022-12-10T01:11:14;96304.47;;;1.40;100.00
70304;BME280;57712;48.752;11.348;2022-12-10T01:13:42;96307.56;;;1.28;100.00
70304;BME280;57712;48.752;11.348;2022-12-10T01:16:11;96311.41;;;1.41;100.00
70304;BME280;57712;48.752;11.348;2022-12-10T01:18:38;96309.84;;;1.40;100.00
70304;BME280;57712;48.752;11.348;2022-12-10T01:21:07;96316.03;;;1.40;100.00
70304;BME280;57712;48.752;11.348;2022-12-10T01:23:37;96311.78;;;1.32;100.00
70304;BME280;57712;48.752;11.348;2022-12-10T01:26:06;96317.56;;;1.38;100.00
70304;BME280;57712;48.752;11.348;2022-12-10T01:28:34;96330.28;;;1.41;100.00
70304;BME280;57712;48.752;11.348;2022-12-10T01:31:07;96327.59;;;1.34;100.00
70304;BME280;57712;48.752;11.348;2022-12-10T01:33:35;96336.06;;;1.43;100.00
70304;BME280;57712;48.752;11.348;2022-12-10T01:36:11;96336.09;;;1.36;100.00
70304;BME280;57712;48.752;11.348;2022-12-10T01:38:38;96336.81;;;1.43;100.00
70304;BME280;57712;48.752;11.348;2022-12-10T01:41:07;96334.91;;;1.44;100.00
70304;BME280;57712;48.752;11.348;2022-12-10T01:46:23;96340.28;;;1.44;100.00
70304;BME280;57712;48.752;11.348;2022-12-10T01:48:51;96339.13;;;1.45;100.00
70304;BME280;57712;48.752;11.348;2022-12-10T01:51:19;96341.44;;;1.43;100.00
70304;BME280;57712;48.752;11.348;2022-12-10T01:53:45;96334.50;;;1.42;100.00
70304;BME280;57712;48.752;11.348;2022-12-10T01:56:13;96335.31;;;1.46;100.00
70304;BME280;57712;48.752;11.348;2022-12-10T01:58:42;96329.91;;;1.46;100.00
70304;BME280;57712;48.752;11.348;2022-12-10T02:01:12;96336.06;;;1.43;100.00
70304;BME280;57712;48.752;11.348;2022-12-10T02:04:03;96332.59;;;1.46;100.00
70304;BME280;57712;48.752;11.348;2022-12-10T02:07:00;96322.19;;;1.37;100.00
70304;BME280;57712;48.752;11.348;2022-12-10T02:12:38;96335.31;;;1.39;100.00
70304;BME280;57712;48.752;11.348;2022-12-10T02:15:16;96325.28;;;1.39;100.00
70304;BME280;57712;48.752;11.348;2022-12-10T02:17:46;96327.19;;;1.42;100.00
70304;BME280;57712;48.752;11.348;2022-12-10T02:20:24;96336.06;;;1.43;100.00
70304;BME280;57712;48.752;11.348;2022-12-10T02:22:57;96328.34;;;1.41;100.00
70304;BME280;57712;48.752;11.348;2022-12-10T02:25:48;96332.22;;;1.40;100.00
70304;BME280;57712;48.752;11.348;2022-12-10T02:28:40;96331.81;;;1.42;100.00
70304;BME280;57712;48.752;11.348;2022-12-10T02:31:14;96322.19;;;1.41;100.00
70304;BME280;57712;48.752;11.348;2022-12-10T02:33:47;96326.06;;;1.36;100.00
70304;BME280;57712;48.752;11.348;2022-12-10T02:36:16;96333.00;;;1.37;100.00
70304;BME280;57712;48.752;11.348;2022-12-10T02:38:47;96326.03;;;1.33;100.00
70304;BME280;57712;48.752;11.348;2022-12-10T02:41:20;96332.22;;;1.40;100.00
70304;BME280;57712;48.752;11.348;2022-12-10T02:43:51;96321.44;;;1.37;100.00
70304;BME280;57712;48.752;11.348;2022-12-10T02:46:19;96317.56;;;1.31;100.00
70304;BME280;57712;48.752;11.348;2022-12-10T02:48:48;96306.78;;;1.31;100.00
70304;BME280;57712;48.752;11.348;2022-12-10T02:51:16;96306.41;;;1.36;100.00
70304;BME280;57712;48.752;11.348;2022-12-10T02:53:43;96304.47;;;1.33;100.00
70304;BME280;57712;48.752;11.348;2022-12-10T02:56:24;96303.31;;;1.37;100.00
70304;BME280;57712;48.752;11.348;2022-12-10T03:01:48;96292.50;;;1.34;100.00
70304;BME280;57712;48.752;11.348;2022-12-10T03:07:10;96295.22;;;1.30;100.00
70304;BME280;57712;48.752;11.348;2022-12-10T03:09:45;96299.09;;;1.29;100.00
70304;BME280;57712;48.752;11.348;2022-12-10T03:12:25;96304.09;;;1.31;100.00
70304;BME280;57712;48.752;11.348;2022-12-10T03:15:03;96305.25;;;1.30;100.00
70304;BME280;57712;48.752;11.348;2022-12-10T03:17:31;96301.38;;;1.31;100.00
70304;BME280;57712;48.752;11.348;2022-12-10T03:20:00;96309.09;;;1.36;100.00
70304;BME280;57712;48.752;11.348;2022-12-10T03:22:28;96300.63;;;1.30;100.00
70304;BME280;57712;48.752;11.348;2022-12-10T03:24:55;96316.03;;;1.33;100.00
70304;BME280;57712;48.752;11.348;2022-12-10T03:27:23;96315.28;;;1.36;100.00
70304;BME280;57712;48.752;11.348;2022-12-10T03:29:52;96302.94;;;1.28;100.00
70304;BME280;57712;48.752;11.348;2022-12-10T03:32:22;96302.16;;;1.21;100.00
70304;BME280;57712;48.752;11.348;2022-12-10T03:34:50;96303.72;;;1.29;100.00
70304;BME280;57712;48.752;11.348;2022-12-10T03:37:18;96303.72;;;1.29;100.00
70304;BME280;57712;48.752;11.348;2022-12-10T03:39:45;96306.00;;;1.23;100.00
70304;BME280;57712;48.752;11.348;2022-12-10T03:42:12;96309.88;;;1.26;100.00
70304;BME280;57712;48.752;11.348;2022-12-10T03:44:39;96301.38;;;1.24;100.00
70304;BME280;57712;48.752;11.348;2022-12-10T03:47:09;96304.50;;;1.26;100.00
70304;BME280;57712;48.752;11.348;2022-12-10T03:49:36;96305.63;;;1.14;100.00
70304;BME280;57712;48.752;11.348;2022-12-10T03:52:03;96311.41;;;1.20;100.00
70304;BME280;57712;48.752;11.348;2022-12-10T03:54:30;96302.16;;;1.21;100.00
70304;BME280;57712;48.752;11.348;2022-12-10T03:56:56;96310.25;;;1.31;100.00
70304;BME280;57712;48.752;11.348;2022-12-10T03:59:23;96305.28;;;1.15;100.00
70304;BME280;57712;48.752;11.348;2022-12-10T04:01:49;96297.53;;;1.21;100.00
70304;BME280;57712;48.752;11.348;2022-12-10T04:04:16;96294.84;;;1.18;100.00
70304;BME280;57712;48.752;11.348;2022-12-10T04:06:42;96307.19;;;1.19;100.00
70304;BME280;57712;48.752;11.348;2022-12-10T04:09:11;96299.09;;;1.26;100.00
70304;BME280;57712;48.752;11.348;2022-12-10T04:11:38;96301.38;;;1.31;100.00
70304;BME280;57712;48.752;11.348;2022-12-10T04:14:05;96306.00;;;1.30;100.00
70304;BME280;57712;48.752;11.348;2022-12-10T04:16:50;96315.63;;;1.35;100.00
70304;BME280;57712;48.752;11.348;2022-12-10T04:19:18;96319.09;;;1.32;100.00
70304;BME280;57712;48.752;11.348;2022-12-10T04:21:45;96324.13;;;1.37;100.00
70304;BME280;57712;48.752;11.348;2022-12-10T04:24:32;96327.59;;;1.37;100.00
70304;BME280;57712;48.752;11.348;2022-12-10T04:27:32;96332.22;;;1.30;100.00
70304;BME280;57712;48.752;11.348;2022-12-10T04:30:00;96328.34;;;1.24;100.00
70304;BME280;57712;48.752;11.348;2022-12-10T04:32:28;96338.38;;;1.34;100.00
70304;BME280;57712;48.752;11.348;2022-12-10T04:34:55;96334.91;;;1.30;100.00
70304;BME280;57712;48.752;11.348;2022-12-10T04:37:23;96318.72;;;1.30;100.00
70304;BME280;57712;48.752;11.348;2022-12-10T04:39:50;96323.34;;;1.33;100.00
70304;BME280;57712;48.752;11.348;2022-12-10T04:42:17;96316.44;;;1.28;100.00
70304;BME280;57712;48.752;11.348;2022-12-10T04:44:44;96316.81;;;1.27;100.00
70304;BME280;57712;48.752;11.348;2022-12-10T04:47:11;96308.72;;;1.27;100.00
70304;BME280;57712;48.752;11.348;2022-12-10T04:49:38;96295.63;;;1.22;100.00
70304;BME280;57712;48.752;11.348;2022-12-10T04:52:06;96283.69;;;1.19;100.00
70304;BME280;57712;48.752;11.348;2022-12-10T04:54:32;96281.38;;;1.10;100.00
70304;BME280;57712;48.752;11.348;2022-12-10T04:57:05;96279.81;;;1.13;100.00
70304;BME280;57712;48.752;11.348;2022-12-10T04:59:32;96297.53;;;1.21;100.00
70304;BME280;57712;48.752;11.348;2022-12-10T05:01:58;96305.25;;;1.23;100.00
70304;BME280;57712;48.752;11.348;2022-12-10T05:04:25;96314.50;;;1.07;100.00
70304;BME280;57712;48.752;11.348;2022-12-10T05:06:52;96319.13;;;1.18;100.00
70304;BME280;57712;48.752;11.348;2022-12-10T05:09:18;96334.16;;;1.26;100.00
70304;BME280;57712;48.752;11.348;2022-12-10T05:11:44;96328.34;;;1.24;100.00
70304;BME280;57712;48.752;11.348;2022-12-10T05:14:12;96322.97;;;1.24;100.00
70304;BME280;57712;48.752;11.348;2022-12-10T05:16:40;96322.59;;;1.14;100.00
70304;BME280;57712;48.752;11.348;2022-12-10T05:19:06;96327.59;;;1.23;100.00
70304;BME280;57712;48.752;11.348;2022-12-10T05:21:34;96329.53;;;1.15;100.00
70304;BME280;57712;48.752;11.348;2022-12-10T05:24:19;96322.97;;;1.24;100.00
70304;BME280;57712;48.752;11.348;2022-12-10T05:26:46;96336.06;;;1.29;100.00
70304;BME280;57712;48.752;11.348;2022-12-10T05:29:18;96332.22;;;1.26;100.00
70304;BME280;57712;48.752;11.348;2022-12-10T05:31:45;96334.53;;;1.24;100.00
70304;BME280;57712;48.752;11.348;2022-12-10T05:34:12;96333.00;;;1.20;100.00
70304;BME280;57712;48.752;11.348;2022-12-10T05:36:38;96326.06;;;1.26;100.00
70304;BME280;57712;48.752;11.348;2022-12-10T05:39:05;96321.44;;;1.30;100.00
70304;BME280;57712;48.752;11.348;2022-12-10T05:41:35;96312.94;;;1.24;100.00
70304;BME280;57712;48.752;11.348;2022-12-10T05:44:03;96304.50;;;1.26;100.00
70304;BME280;57712;48.752;11.348;2022-12-10T05:46:32;96310.66;;;1.15;100.00
70304;BME280;57712;48.752;11.348;2022-12-10T05:49:00;96311.03;;;1.25;100.00
70304;BME280;57712;48.752;11.348;2022-12-10T05:51:30;96321.44;;;1.26;100.00
70304;BME280;57712;48.752;11.348;2022-12-10T05:53:57;96322.97;;;1.24;100.00
70304;BME280;57712;48.752;11.348;2022-12-10T05:56:25;96323.75;;;1.21;100.00
70304;BME280;57712;48.752;11.348;2022-12-10T05:58:55;96327.59;;;1.12;100.00
70304;BME280;57712;48.752;11.348;2022-12-10T06:01:25;96329.53;;;1.19;100.00
70304;BME280;57712;48.752;11.348;2022-12-10T06:03:52;96326.06;;;1.15;100.00
70304;BME280;57712;48.752;11.348;2022-12-10T06:06:24;96324.50;;;1.25;100.00
70304;BME280;57712;48.752;11.348;2022-12-10T06:08:51;96327.59;;;1.12;100.00
70304;BME280;57712;48.752;11.348;2022-12-10T06:11:18;96343.78;;;1.12;100.00
70304;BME280;57712;48.752;11.348;2022-12-10T06:13:45;96341.09;;;1.09;100.00
70304;BME280;57712;48.752;11.348;2022-12-10T06:16:17;96332.22;;;1.01;100.00
70304;BME280;57712;48.752;11.348;2022-12-10T06:18:43;96329.53;;;1.05;100.00
70304;BME280;57712;48.752;11.348;2022-12-10T06:21:13;96325.69;;;0.99;100.00
70304;BME280;57712;48.752;11.348;2022-12-10T06:23:41;96318.75;;;0.94;100.00
70304;BME280;57712;48.752;11.348;2022-12-10T06:26:10;96321.81;;;0.89;100.00
70304;BME280;57712;48.752;11.348;2022-12-10T06:28:39;96330.66;;;0.90;100.00
70304;BME280;57712;48.752;11.348;2022-12-10T06:31:06;96323.00;;;0.95;100.00
70304;BME280;57712;48.752;11.348;2022-12-10T06:33:33;96316.81;;;0.91;100.00
70304;BME280;57712;48.752;11.348;2022-12-10T06:36:03;96313.75;;;0.96;100.00
70304;BME280;57712;48.752;11.348;2022-12-10T06:38:29;96319.88;;;0.93;100.00
70304;BME280;57712;48.752;11.348;2022-12-10T06:40:56;96326.84;;;0.98;100.00
70304;BME280;57712;48.752;11.348;2022-12-10T06:43:22;96329.91;;;0.96;100.00
70304;BME280;57712;48.752;11.348;2022-12-10T06:45:49;96337.59;;;0.87;100.00
70304;BME280;57712;48.752;11.348;2022-12-10T06:48:15;96343.00;;;0.94;100.00
70304;BME280;57712;48.752;11.348;2022-12-10T06:50:42;96344.94;;;1.04;100.00
70304;BME280;57712;48.752;11.348;2022-12-10T06:53:09;96349.56;;;1.00;100.00
70304;BME280;57712;48.752;11.348;2022-12-10T06:55:37;96350.31;;;1.01;100.00
70304;BME280;57712;48.752;11.348;2022-12-10T06:58:04;96354.56;;;1.05;100.00
70304;BME280;57712;48.752;11.348;2022-12-10T07:00:31;96363.81;;;1.15;100.00
70304;BME280;57712;48.752;11.348;2022-12-10T07:02:58;96365.72;;;1.11;100.00
70304;BME280;57712;48.752;11.348;2022-12-10T07:05:24;96363.81;;;1.15;100.00
70304;BME280;57712;48.752;11.348;2022-12-10T07:07:51;96371.91;;;1.19;100.00
70304;BME280;57712;48.752;11.348;2022-12-10T07:10:17;96366.53;;;1.15;100.00
70304;BME280;57712;48.752;11.348;2022-12-10T07:12:44;96375.38;;;1.23;100.00
70304;BME280;57712;48.752;11.348;2022-12-10T07:15:11;96384.63;;;1.22;100.00
70304;BME280;57712;48.752;11.348;2022-12-10T07:17:37;96378.47;;;1.18;100.00
70304;BME280;57712;48.752;11.348;2022-12-10T07:20:04;96386.94;;;1.20;100.00
70304;BME280;57712;48.752;11.348;2022-12-10T07:22:31;96393.84;;;1.13;100.00
70304;BME280;57712;48.752;11.348;2022-12-10T07:24:58;96388.84;;;1.08;100.00
70304;BME280;57712;48.752;11.348;2022-12-10T07:27:24;96386.53;;;1.10;100.00
70304;BME280;57712;48.752;11.348;2022-12-10T07:29:51;96389.22;;;0.96;100.00
70304;BME280;57712;48.752;11.348;2022-12-10T07:32:18;96377.66;;;0.92;100.00
70304;BME280;57712;48.752;11.348;2022-12-10T07:34:44;96387.69;;;1.06;100.00
70304;BME280;57712;48.752;11.348;2022-12-10T07:37:11;96382.69;;;0.97;100.00
70304;BME280;57712;48.752;11.348;2022-12-10T07:39:38;96382.28;;;0.95;100.00
70304;BME280;57712;48.752;11.348;2022-12-10T07:42:04;96380.00;;;1.04;100.00
70304;BME280;57712;48.752;11.348;2022-12-10T07:44:32;96382.28;;;0.95;100.00
70304;BME280;57712;48.752;11.348;2022-12-10T07:46:58;96390.00;;;1.00;100.00
70304;BME280;57712;48.752;11.348;2022-12-10T07:49:25;96386.16;;;1.08;100.00
70304;BME280;57712;48.752;11.348;2022-12-10T07:51:52;96378.44;;;1.10;100.00
70304;BME280;57712;48.752;11.348;2022-12-10T07:54:18;96391.91;;;1.03;100.00
70304;BME280;57712;48.752;11.348;2022-12-10T07:56:45;96390.78;;;1.19;100.00
70304;BME280;57712;48.752;11.348;2022-12-10T07:59:11;96388.06;;;1.11;100.00
70304;BME280;57712;48.752;11.348;2022-12-10T08:01:38;96390.38;;;1.09;100.00
70304;BME280;57712;48.752;11.348;2022-12-10T08:04:04;96395.41;;;1.22;100.00
70304;BME280;57712;48.752;11.348;2022-12-10T08:06:31;96391.56;;;1.19;100.00
70304;BME280;57712;48.752;11.348;2022-12-10T08:08:59;96390.78;;;1.33;100.00
70304;BME280;57712;48.752;11.348;2022-12-10T08:11:26;96390.41;;;1.31;100.00
70304;BME280;57712;48.752;11.348;2022-12-10T08:13:53;96398.50;;;1.34;100.00
70304;BME280;57712;48.752;11.348;2022-12-10T08:16:25;96391.56;;;1.37;100.00
70304;BME280;57712;48.752;11.348;2022-12-10T08:18:54;96392.72;;;1.43;100.00
70304;BME280;57712;48.752;11.348;2022-12-10T08:21:23;96391.16;;;1.42;100.00
70304;BME280;57712;48.752;11.348;2022-12-10T08:23:50;96389.25;;;1.42;100.00
70304;BME280;57712;48.752;11.348;2022-12-10T08:26:19;96386.56;;;1.46;100.00
70304;BME280;57712;48.752;11.348;2022-12-10T08:28:47;96384.63;;;1.43;100.00
70304;BME280;57712;48.752;11.348;2022-12-10T08:31:15;96385.38;;;1.54;100.00
70304;BME280;57712;48.752;11.348;2022-12-10T08:33:42;96389.25;;;1.46;100.00
70304;BME280;57712;48.752;11.348;2022-12-10T08:36:12;96386.53;;;1.35;100.00
70304;BME280;57712;48.752;11.348;2022-12-10T08:38:39;96378.47;;;1.46;100.00
70304;BME280;57712;48.752;11.348;2022-12-10T08:41:09;96383.84;;;1.35;100.00
70304;BME280;57712;48.752;11.348;2022-12-10T08:43:36;96386.53;;;1.35;100.00
70304;BME280;57712;48.752;11.348;2022-12-10T08:46:03;96379.22;;;1.39;100.00
70304;BME280;57712;48.752;11.348;2022-12-10T08:48:31;96388.09;;;1.40;100.00
70304;BME280;57712;48.752;11.348;2022-12-10T08:50:58;96406.22;;;1.36;100.00
70304;BME280;57712;48.752;11.348;2022-12-10T08:53:24;96406.97;;;1.33;100.00
70304;BME280;57712;48.752;11.348;2022-12-10T08:55:52;96406.59;;;1.34;100.00
70304;BME280;57712;48.752;11.348;2022-12-10T08:58:20;96403.53;;;1.36;100.00
70304;BME280;57712;48.752;11.348;2022-12-10T09:00:48;96397.72;;;1.30;100.00
70304;BME280;57712;48.752;11.348;2022-12-10T09:03:15;96396.97;;;1.37;100.00
70304;BME280;57712;48.752;11.348;2022-12-10T09:05:42;96401.59;;;1.40;100.00
70304;BME280;57712;48.752;11.348;2022-12-10T09:08:09;96396.97;;;1.37;100.00
70304;BME280;57712;48.752;11.348;2022-12-10T09:10:37;96398.50;;;1.41;100.00
70304;BME280;57712;48.752;11.348;2022-12-10T09:13:04;96392.34;;;1.41;100.00
70304;BME280;57712;48.752;11.348;2022-12-10T09:15:31;96389.25;;;1.46;100.00
70304;BME280;57712;48.752;11.348;2022-12-10T09:17:57;96377.66;;;1.56;100.00
70304;BME280;57712;48.752;11.348;2022-12-10T09:20:24;96381.53;;;1.55;100.00
70304;BME280;57712;48.752;11.348;2022-12-10T09:22:51;96380.75;;;1.65;100.00
70304;BME280;57712;48.752;11.348;2022-12-10T09:25:17;96393.44;;;1.76;100.00
70304;BME280;57712;48.752;11.348;2022-12-10T09:27:47;96395.38;;;1.86;100.00
70304;BME280;57712;48.752;11.348;2022-12-10T09:30:15;96396.13;;;1.93;100.00
70304;BME280;57712;48.752;11.348;2022-12-10T09:32:42;96396.88;;;2.05;100.00
70304;BME280;57712;48.752;11.348;2022-12-10T09:35:09;96389.13;;;2.17;100.00
70304;BME280;57712;48.752;11.348;2022-12-10T09:37:35;96393.75;;;2.20;100.00
70304;BME280;57712;48.752;11.348;2022-12-10T09:40:02;96405.28;;;2.35;100.00
70304;BME280;57712;48.752;11.348;2022-12-10T09:42:53;96412.25;;;2.33;100.00
70304;BME280;57712;48.752;11.348;2022-12-10T09:45:47;96413.00;;;2.33;100.00
70304;BME280;57712;48.752;11.348;2022-12-10T09:50:55;96417.22;;;2.38;100.00
70304;BME280;57712;48.752;11.348;2022-12-10T09:53:27;96406.81;;;2.36;100.00
70304;BME280;57712;48.752;11.348;2022-12-10T09:55:55;96401.44;;;2.33;100.00
70304;BME280;57712;48.752;11.348;2022-12-10T09:58:24;96402.22;;;2.29;100.00
70304;BME280;57712;48.752;11.348;2022-12-10T10:01:02;96402.94;;;2.41;100.00
70304;BME280;57712;48.752;11.348;2022-12-10T10:03:32;96402.59;;;2.31;100.00
70304;BME280;57712;48.752;11.348;2022-12-10T10:06:02;96396.78;;;2.33;100.00
70304;BME280;57712;48.752;11.348;2022-12-10T10:08:48;96396.03;;;2.29;100.00
70304;BME280;57712;48.752;11.348;2022-12-10T10:11:19;96396.78;;;2.37;100.00
70304;BME280;57712;48.752;11.348;2022-12-10T10:13:52;96408.75;;;2.36;100.00
70304;BME280;57712;48.752;11.348;2022-12-10T10:16:34;96394.44;;;2.39;100.00
70304;BME280;57712;48.752;11.348;2022-12-10T10:19:09;96394.03;;;2.47;100.00
70304;BME280;57712;48.752;11.348;2022-12-10T10:21:40;96405.22;;;2.53;100.00
70304;BME280;57712;48.752;11.348;2022-12-10T10:24:12;96405.16;;;2.60;100.00
70304;BME280;57712;48.752;11.348;2022-12-10T10:26:40;96407.53;;;2.51;100.00
70304;BME280;57712;48.752;11.348;2022-12-10T10:29:08;96407.44;;;2.72;100.00
70304;BME280;57712;48.752;11.348;2022-12-10T10:31:40;96410.88;;;2.76;100.00
70304;BME280;57712;48.752;11.348;2022-12-10T10:34:27;96400.94;;;2.63;100.00
70304;BME280;57712;48.752;11.348;2022-12-10T10:36:57;96389.72;;;2.64;100.00
70304;BME280;57712;48.752;11.348;2022-12-10T10:39:29;96394.97;;;2.89;100.00
70304;BME280;57712;48.752;11.348;2022-12-10T10:41:58;96394.28;;;2.81;100.00
70304;BME280;57712;48.752;11.348;2022-12-10T10:44:28;96384.09;;;3.00;100.00
70304;BME280;57712;48.752;11.348;2022-12-10T10:47:00;96381.72;;;3.09;100.00
70304;BME280;57712;48.752;11.348;2022-12-10T10:49:30;96384.78;;;3.14;100.00
70304;BME280;57712;48.752;11.348;2022-12-10T10:52:20;96379.34;;;3.18;100.00
70304;BME280;57712;48.752;11.348;2022-12-10T10:54:47;96369.25;;;3.22;100.00
70304;BME280;57712;48.752;11.348;2022-12-10T10:59:45;96390.19;;;3.11;100.00
70304;BME280;57712;48.752;11.348;2022-12-10T11:04:49;96380.22;;;3.01;100.00
70304;BME280;57712;48.752;11.348;2022-12-10T11:07:39;96380.91;;;3.12;100.00
70304;BME280;57712;48.752;11.348;2022-12-10T11:10:19;96371.25;;;3.14;100.00
70304;BME280;57712;48.752;11.348;2022-12-10T11:13:07;96377.81;;;3.17;100.00
70304;BME280;57712;48.752;11.348;2022-12-10T11:15:37;96380.91;;;3.12;100.00
70304;BME280;57712;48.752;11.348;2022-12-10T11:18:23;96391.81;;;3.05;100.00
70304;BME280;57712;48.752;11.348;2022-12-10T11:20:59;96384.84;;;3.04;100.00
70304;BME280;57712;48.752;11.348;2022-12-10T11:23:28;96385.94;;;3.13;100.00
70304;BME280;57712;48.752;11.348;2022-12-10T11:26:15;96382.56;;;3.02;100.00
70304;BME280;57712;48.752;11.348;2022-12-10T11:28:57;96385.25;;;3.02;100.00
70304;BME280;57712;48.752;11.348;2022-12-10T11:34:19;96384.84;;;3.04;100.00
70304;BME280;57712;48.752;11.348;2022-12-10T11:40:02;96375.50;;;3.15;100.00
70304;BME280;57712;48.752;11.348;2022-12-10T11:42:52;96383.22;;;3.17;100.00
70304;BME280;57712;48.752;11.348;2022-12-10T11:50:41;96383.28;;;3.06;100.00
70304;BME280;57712;48.752;11.348;2022-12-10T11:53:47;96387.97;;;2.99;100.00
70304;BME280;57712;48.752;11.348;2022-12-10T11:56:22;96384.84;;;3.04;100.00
70304;BME280;57712;48.752;11.348;2022-12-10T12:01:42;96371.25;;;3.11;100.00
70304;BME280;57712;48.752;11.348;2022-12-10T12:04:40;96367.81;;;3.07;100.00
70304;BME280;57712;48.752;11.348;2022-12-10T12:16:17;96373.56;;;3.16;100.00
70304;BME280;57712;48.752;11.348;2022-12-10T12:19:10;96367.78;;;3.14;100.00
70304;BME280;57712;48.752;11.348;2022-12-10T12:21:40;96369.47;;;2.94;100.00
70304;BME280;57712;48.752;11.348;2022-12-10T12:24:20;96368.63;;;3.04;100.00
70304;BME280;57712;48.752;11.348;2022-12-10T12:26:58;96371.78;;;2.92;100.00
70304;BME280;57712;48.752;11.348;2022-12-10T12:29:33;96366.84;;;2.79;100.00
70304;BME280;57712;48.752;11.348;2022-12-10T12:34:52;96376.59;;;3.25;100.00
70304;BME280;57712;48.752;11.348;2022-12-10T12:37:38;96375.63;;;2.98;100.00
70304;BME280;57712;48.752;11.348;2022-12-10T12:43:12;96407.22;;;3.08;100.00
70304;BME280;57712;48.752;11.348;2022-12-10T12:45:44;96404.53;;;3.08;100.00
70304;BME280;57712;48.752;11.348;2022-12-10T12:48:38;96404.31;;;2.77;100.00
70304;BME280;57712;48.752;11.348;2022-12-10T12:51:12;96401.63;;;2.77;100.00
70304;BME280;57712;48.752;11.348;2022-12-10T12:53:43;96404.72;;;2.76;100.00
70304;BME280;57712;48.752;11.348;2022-12-10T12:56:38;96408.22;;;2.69;100.00
70304;BME280;57712;48.752;11.348;2022-12-10T13:02:40;96419.41;;;2.75;100.00
70304;BME280;57712;48.752;11.348;2022-12-10T13:11:00;96426.13;;;2.27;100.00
70304;BME280;57712;48.752;11.348;2022-12-10T13:13:35;96436.97;;;2.13;100.00
70304;BME280;57712;48.752;11.348;2022-12-10T13:22:11;96445.88;;;2.03;100.00
70304;BME280;57712;48.752;11.348;2022-12-10T13:30:00;96448.19;;;2.05;100.00
70304;BME280;57712;48.752;11.348;2022-12-10T13:46:35;96471.72;;;2.15;100.00
70304;BME280;57712;48.752;11.348;2022-12-10T13:49:21;96469.41;;;2.06;100.00
70304;BME280;57712;48.752;11.348;2022-12-10T13:52:06;96484.44;;;1.96;100.00
70304;BME280;57712;48.752;11.348;2022-12-10T13:54:59;96486.38;;;2.03;100.00
70304;BME280;57712;48.752;11.348;2022-12-10T14:00:14;96498.34;;;1.73;100.00
70304;BME280;57712;48.752;11.348;2022-12-10T14:03:02;96497.56;;;1.77;100.00
70304;BME280;57712;48.752;11.348;2022-12-10T14:06:19;96493.72;;;1.85;100.00
70304;BME280;57712;48.752;11.348;2022-12-10T14:09:11;96504.53;;;1.78;100.00
70304;BME280;57712;48.752;11.348;2022-12-10T14:11:46;96500.28;;;1.69;100.00
70304;BME280;57712;48.752;11.348;2022-12-10T14:14:22;96501.06;;;1.73;100.00
70304;BME280;57712;48.752;11.348;2022-12-10T14:16:50;96505.31;;;1.67;100.00
70304;BME280;57712;48.752;11.348;2022-12-10T14:19:24;96501.81;;;1.63;100.00
70304;BME280;57712;48.752;11.348;2022-12-10T14:21:53;96503.75;;;1.73;100.00
70304;BME280;57712;48.752;11.348;2022-12-10T14:24:28;96503.38;;;1.57;100.00
70304;BME280;57712;48.752;11.348;2022-12-10T14:26:58;96511.84;;;1.70;100.00
70304;BME280;57712;48.752;11.348;2022-12-10T14:29:25;96517.22;;;1.66;100.00
70304;BME280;57712;48.752;11.348;2022-12-10T14:31:55;96521.09;;;1.65;100.00
70304;BME280;57712;48.752;11.348;2022-12-10T14:34:25;96520.72;;;1.63;100.00
70304;BME280;57712;48.752;11.348;2022-12-10T14:36:57;96518.03;;;1.70;100.00